Raco, Michigan
Current Conditions -  °F | °C
As of 8:00 PM on Monday 20 Oct 2014 (Local Time) from CYAM Reporting Station
Overcast Overcast  
Wind Chill: 44°   Ceiling: 2600
Heat Index: 48°   Visibility: 15mi
Dew Point: 43°   Wind: 10mph
Humidity: 82%   Direction: 30°NNE
Pressure: 29.88"   Gusts: NA
Location:  46.4104°N, 84.5584°W
Report Text: CYAM 210000Z 03009KT 15SM FEW015 BKN026 OVC052 09/06 A2988 RMK SC2SC4SC2 SLP124
Loading
Personal Weather Stations






























Interactive Weather Map
Tropical Storm Tracking
New forecast layout! Learn more

10-Day Weather Forecast

Advertisements
Track Severe Weather on mobile